Time;durP1;ratioP1;P1;durP2;ratioP2;P2;SDS_P1;SDS_P2;PMS_P1;PMS_P2;Temp;Humidity;BMP_temperature;BMP_pressure;BME280_temperature;BME280_humidity;BME280_pressure;Samples;Min_cycle;Max_cycle;Signal;HPM_P1;HPM_P2
2022/07/21 00:02:08;;;;;;;9.80;3.13;;;19.60;99.90;;;;;;12525850;28;20187;-37
2022/07/21 00:08:10;;;;;;;8.55;3.30;;;20.00;99.90;;;;;;12522726;28;20053;-37
2022/07/21 00:14:12;;;;;;;5.90;3.30;;;19.80;99.90;;;;;;12510653;28;20090;-33
2022/07/21 00:20:16;;;;;;;4.75;3.75;;;20.10;99.90;;;;;;12523402;28;20516;-33
2022/07/21 00:26:18;;;;;;;6.97;3.65;;;20.00;99.90;;;;;;12524495;28;20079;-37
2022/07/21 00:32:20;;;;;;;8.02;4.07;;;20.30;99.90;;;;;;12532703;28;20423;-37
2022/07/21 00:38:22;;;;;;;6.88;3.97;;;20.70;99.90;;;;;;12525221;28;20513;-33
2022/07/21 00:44:26;;;;;;;7.10;2.85;;;20.70;99.90;;;;;;12526626;28;20086;-38
2022/07/21 00:50:28;;;;;;;4.30;2.10;;;21.10;99.90;;;;;;12521102;28;20048;-37
2022/07/21 00:56:30;;;;;;;8.82;3.33;;;21.00;99.90;;;;;;12524286;28;20509;-33
2022/07/21 01:02:36;;;;;;;4.20;2.42;;;21.00;99.90;;;;;;12525419;28;20057;-37
2022/07/21 01:08:38;;;;;;;10.27;2.90;;;20.80;99.90;;;;;;12536245;28;20326;-33
2022/07/21 01:14:40;;;;;;;5.63;2.60;;;21.00;99.90;;;;;;12530560;28;20047;-33
2022/07/21 01:20:50;;;;;;;5.60;2.97;;;21.00;99.90;;;;;;12545978;28;20053;-33
2022/07/21 01:26:53;;;;;;;6.13;3.42;;;20.70;99.90;;;;;;12526906;28;20656;-38
2022/07/21 01:32:55;;;;;;;6.63;3.47;;;20.20;99.90;;;;;;12521773;28;20106;-33
2022/07/21 01:45:17;;;;;;;8.40;3.42;;;20.00;99.90;;;;;;12544659;28;20412;-33
2022/07/21 01:51:18;;;;;;;7.53;3.85;;;20.00;99.90;;;;;;12533590;28;20120;-38
2022/07/21 01:57:20;;;;;;;7.25;3.88;;;20.10;99.90;;;;;;12538729;28;20127;-37
2022/07/21 02:03:22;;;;;;;7.55;3.97;;;20.30;99.90;;;;;;12530692;28;20183;-37
2022/07/21 02:09:24;;;;;;;7.22;4.03;;;20.60;99.90;;;;;;12551764;28;20049;-38
2022/07/21 02:15:26;;;;;;;7.95;4.00;;;20.70;99.90;;;;;;12540924;28;20044;-33
2022/07/21 02:21:28;;;;;;;8.15;4.80;;;20.90;99.90;;;;;;12551727;28;20041;-37
2022/07/21 02:27:29;;;;;;;7.75;4.47;;;20.80;99.90;;;;;;12531460;28;20045;-37
2022/07/21 02:33:31;;;;;;;7.30;5.00;;;20.80;99.90;;;;;;12540169;28;20178;-37
2022/07/21 02:39:33;;;;;;;9.77;4.97;;;20.70;99.90;;;;;;12525955;28;20519;-37
2022/07/21 02:45:36;;;;;;;7.57;5.38;;;20.50;99.90;;;;;;12528357;28;20520;-33
2022/07/21 02:51:38;;;;;;;9.50;5.38;;;20.60;99.90;;;;;;12542534;28;20064;-33
2022/07/21 02:57:40;;;;;;;15.10;7.40;;;20.60;99.90;;;;;;12533109;28;20143;-33
2022/07/21 03:03:42;;;;;;;10.32;7.15;;;20.60;99.90;;;;;;12529020;28;20529;-33
2022/07/21 03:09:45;;;;;;;13.73;8.73;;;20.50;99.90;;;;;;12538768;28;20053;-39
2022/07/21 03:15:47;;;;;;;12.50;9.25;;;20.50;99.90;;;;;;12529817;28;20102;-33
2022/07/21 03:21:50;;;;;;;12.65;10.48;;;20.50;99.90;;;;;;12524728;28;20132;-37
2022/07/21 03:27:52;;;;;;;13.23;10.07;;;20.50;99.90;;;;;;12541712;28;20300;-33
2022/07/21 03:33:54;;;;;;;11.73;8.80;;;20.60;99.90;;;;;;12533596;28;20614;-33
2022/07/21 03:39:56;;;;;;;13.68;9.70;;;20.70;99.90;;;;;;12532518;28;20072;-33
2022/07/21 03:45:58;;;;;;;11.00;8.52;;;20.60;99.90;;;;;;12538441;28;20446;-33
2022/07/21 03:52:00;;;;;;;10.73;8.93;;;20.70;99.90;;;;;;12534465;28;20056;-37
2022/07/21 03:58:04;;;;;;;12.25;9.52;;;20.50;99.90;;;;;;12537869;28;20041;-33
2022/07/21 04:04:06;;;;;;;10.02;8.57;;;20.40;99.90;;;;;;12515668;28;20566;-33
2022/07/21 04:10:10;;;;;;;13.95;8.73;;;20.40;99.90;;;;;;12538874;28;20501;-33
2022/07/21 04:16:12;;;;;;;17.80;9.13;;;20.60;99.90;;;;;;12509818;28;20053;-37
2022/07/21 04:22:14;;;;;;;11.95;9.43;;;20.80;99.90;;;;;;12537717;28;20073;-37
2022/07/21 04:28:16;;;;;;;15.88;9.82;;;20.70;99.90;;;;;;12524373;28;20195;-33
2022/07/21 04:34:17;;;;;;;15.13;11.48;;;20.50;99.90;;;;;;12537752;28;20562;-33
2022/07/21 04:40:19;;;;;;;9.48;7.95;;;20.30;99.90;;;;;;12532132;28;20045;-33
2022/07/21 04:46:21;;;;;;;21.88;4.60;;;20.00;99.90;;;;;;12522047;28;20048;-38
2022/07/21 04:52:23;;;;;;;8.30;3.70;;;19.50;99.90;;;;;;12546925;28;20042;-38
2022/07/21 04:58:25;;;;;;;8.95;3.63;;;19.10;99.90;;;;;;12537766;28;20041;-33
2022/07/21 05:04:26;;;;;;;5.45;3.20;;;18.70;99.90;;;;;;12548934;28;20129;-37
2022/07/21 05:10:29;;;;;;;5.32;2.83;;;18.50;99.90;;;;;;12549216;28;20056;-37
2022/07/21 05:16:30;;;;;;;4.22;3.00;;;18.60;99.90;;;;;;12542043;28;20079;-38
2022/07/21 05:22:32;;;;;;;5.75;3.28;;;18.50;99.90;;;;;;12545452;28;20187;-33
2022/07/21 05:28:34;;;;;;;5.68;3.50;;;18.50;99.90;;;;;;12559147;28;20052;-37
2022/07/21 05:34:36;;;;;;;4.78;3.65;;;18.60;99.90;;;;;;12550540;28;20516;-36
2022/07/21 05:40:38;;;;;;;7.18;4.38;;;18.70;99.90;;;;;;12546174;28;20057;-33
2022/07/21 05:46:40;;;;;;;6.47;4.60;;;18.80;99.90;;;;;;12550695;28;20044;-37
2022/07/21 05:52:42;;;;;;;6.68;4.07;;;18.80;99.90;;;;;;12544043;28;20048;-33
2022/07/21 05:58:45;;;;;;;5.95;3.95;;;19.00;99.90;;;;;;12540219;28;20045;-37
2022/07/21 06:04:46;;;;;;;5.65;3.90;;;19.10;99.90;;;;;;12543693;28;20604;-38
2022/07/21 06:10:48;;;;;;;7.05;5.53;;;19.30;99.90;;;;;;12545989;28;20057;-34
2022/07/21 06:16:51;;;;;;;10.30;6.03;;;19.30;99.90;;;;;;12544875;28;20045;-38
2022/07/21 06:22:52;;;;;;;15.57;6.75;;;19.40;99.90;;;;;;12547257;28;20584;-38
2022/07/21 06:28:54;;;;;;;8.18;6.30;;;19.30;99.90;;;;;;12534805;28;20068;-34
2022/07/21 06:34:56;;;;;;;9.93;7.40;;;19.20;99.90;;;;;;12529362;28;20106;-38
2022/07/21 06:40:58;;;;;;;14.00;8.25;;;19.30;99.90;;;;;;12534145;28;20045;-38
2022/07/21 06:47:04;;;;;;;11.85;9.15;;;19.30;99.90;;;;;;12535997;28;20056;-38
2022/07/21 06:53:06;;;;;;;14.82;12.93;;;19.40;99.90;;;;;;12535274;28;20076;-33
2022/07/21 06:59:08;;;;;;;20.45;14.70;;;19.20;99.90;;;;;;12527733;28;20049;-33
2022/07/21 07:05:09;;;;;;;17.27;14.80;;;19.30;99.90;;;;;;12532520;28;20041;-38
2022/07/21 07:11:11;;;;;;;17.58;15.45;;;19.20;99.90;;;;;;12522249;28;20465;-39
2022/07/21 07:17:21;;;;;;;16.23;14.52;;;19.30;99.90;;;;;;12516356;28;20091;-34
2022/07/21 07:23:23;;;;;;;18.25;15.07;;;19.30;99.90;;;;;;12533041;28;20049;-36
2022/07/21 07:29:24;;;;;;;17.60;15.55;;;19.30;99.90;;;;;;12536474;28;20460;-33
2022/07/21 07:35:26;;;;;;;16.05;14.13;;;19.40;99.90;;;;;;12525938;28;20105;-33
2022/07/21 07:41:31;;;;;;;14.77;13.13;;;19.40;99.90;;;;;;12527868;28;20128;-34
2022/07/21 07:47:34;;;;;;;14.45;12.95;;;19.50;99.90;;;;;;12524415;28;20532;-39
2022/07/21 07:53:39;;;;;;;14.00;12.45;;;19.50;99.90;;;;;;12530278;28;20140;-34
2022/07/21 07:59:41;;;;;;;14.25;12.75;;;19.50;99.90;;;;;;12519420;28;20045;-34
2022/07/21 08:05:43;;;;;;;14.40;12.65;;;19.60;99.90;;;;;;12527180;28;20114;-34
2022/07/21 08:11:46;;;;;;;14.93;13.43;;;19.50;99.90;;;;;;12529640;28;20048;-39
2022/07/21 08:17:48;;;;;;;;;;;19.60;99.90;;;;;;12530702;28;20599;-38
2022/07/21 08:23:50;;;;;;;18.42;14.75;;;19.80;99.90;;;;;;12528202;28;19924;-38
2022/07/21 08:29:52;;;;;;;17.15;15.23;;;19.90;99.90;;;;;;12524476;28;20061;-38
2022/07/21 08:35:54;;;;;;;16.10;14.40;;;20.10;99.90;;;;;;12527372;28;20044;-33
2022/07/21 08:41:59;;;;;;;18.23;13.85;;;20.30;99.90;;;;;;12528148;28;20110;-34
2022/07/21 08:48:01;;;;;;;13.32;11.65;;;20.20;99.90;;;;;;12522042;28;20191;-38
2022/07/21 08:54:04;;;;;;;13.02;11.73;;;20.20;99.90;;;;;;12516260;28;20497;-38
2022/07/21 09:00:08;;;;;;;18.90;12.98;;;20.20;99.90;;;;;;12522790;28;20057;-39
2022/07/21 09:06:14;;;;;;;13.77;12.38;;;20.00;99.90;;;;;;12498008;28;20519;-34
2022/07/21 09:12:16;;;;;;;16.60;11.65;;;20.20;99.90;;;;;;12530624;28;20076;-34
2022/07/21 09:18:17;;;;;;;13.02;11.55;;;20.50;99.90;;;;;;12524173;28;20045;-34
2022/07/21 09:24:31;;;;;;;13.63;10.75;;;20.70;99.90;;;;;;12529469;28;20045;-38
2022/07/21 09:31:01;;;;;;;10.65;9.55;;;20.90;99.90;;;;;;12528504;28;20493;-38
2022/07/21 09:37:06;;;;;;;10.73;9.05;;;20.80;99.90;;;;;;12528352;28;20629;-38
2022/07/21 09:43:08;;;;;;;11.40;9.18;;;20.90;99.90;;;;;;12535568;28;20049;-38
2022/07/21 09:49:10;;;;;;;11.80;9.03;;;21.10;99.90;;;;;;12527506;28;20049;-38
2022/07/21 09:55:32;;;;;;;9.70;8.05;;;20.90;99.90;;;;;;12531000;28;20044;-40
2022/07/21 10:01:37;;;;;;;10.63;7.78;;;21.00;99.90;;;;;;12517882;28;20111;-40
2022/07/21 10:07:43;;;;;;;10.98;7.60;;;21.60;99.90;;;;;;12538331;28;20109;-33
2022/07/21 10:13:46;;;;;;;10.23;7.47;;;21.60;99.90;;;;;;12533705;28;20516;-38
2022/07/21 10:19:57;;;;;;;9.90;7.15;;;21.50;99.90;;;;;;12521546;28;20053;-34
2022/07/21 10:25:59;;;;;;;10.55;7.32;;;21.30;99.90;;;;;;12535590;28;20390;-34
2022/07/21 10:32:10;;;;;;;9.68;6.28;;;21.70;99.90;;;;;;12536573;28;20455;-33
2022/07/21 10:38:30;;;;;;;10.10;7.43;;;21.40;99.90;;;;;;12529736;28;20171;-34
2022/07/21 10:44:37;;;;;;;9.35;7.47;;;21.30;99.90;;;;;;12536816;28;20520;-38
2022/07/21 10:50:50;;;;;;;10.02;7.80;;;21.20;99.90;;;;;;12522303;28;20108;-38
2022/07/21 10:57:24;;;;;;;9.83;8.27;;;21.50;99.90;;;;;;12531218;28;20048;-38
2022/07/21 11:03:34;;;;;;;10.55;9.25;;;21.80;99.90;;;;;;12525083;28;20099;-38
2022/07/21 11:09:36;;;;;;;12.38;9.57;;;21.80;99.90;;;;;;12528473;28;20092;-34
2022/07/21 11:15:47;;;;;;;13.70;10.30;;;21.40;99.90;;;;;;12520720;28;20124;-38
2022/07/21 11:21:50;;;;;;;7.55;4.90;;;21.60;99.90;;;;;;12537078;28;20480;-34
2022/07/21 11:27:51;;;;;;;7.33;6.13;;;21.60;99.90;;;;;;12534895;28;20050;-38
2022/07/21 11:33:54;;;;;;;9.23;6.00;;;21.90;99.90;;;;;;12543800;28;20045;-34
2022/07/21 11:39:57;;;;;;;9.73;6.25;;;22.70;99.90;;;;;;12531732;28;20481;-34
2022/07/21 11:45:59;;;;;;;10.00;6.28;;;22.50;99.90;;;;;;12541004;28;20052;-39
2022/07/21 11:52:07;;;;;;;8.85;7.25;;;22.00;99.90;;;;;;12543708;28;20505;-34
2022/07/21 11:58:14;;;;;;;7.40;5.70;;;21.90;99.90;;;;;;12528481;28;20102;-34
2022/07/21 12:04:38;;;;;;;8.65;6.20;;;21.80;99.90;;;;;;12537270;28;20099;-38
2022/07/21 12:10:42;;;;;;;9.07;5.90;;;21.30;99.90;;;;;;12529985;28;20068;-34
2022/07/21 12:16:52;;;;;;;9.40;6.50;;;20.90;99.90;;;;;;12537591;28;20051;-34
2022/07/21 12:22:56;;;;;;;12.32;7.55;;;20.50;99.90;;;;;;12542139;28;20059;-34
2022/07/21 12:28:59;;;;;;;7.45;5.10;;;20.30;99.90;;;;;;12540911;28;20486;-39
2022/07/21 12:35:01;;;;;;;;;;;20.20;99.90;;;;;;12541487;28;20044;-34
2022/07/21 12:41:22;;;;;;;9.55;5.80;;;20.20;99.90;;;;;;12540962;28;19924;-33
2022/07/21 12:47:29;;;;;;;10.32;7.40;;;20.10;99.90;;;;;;12541622;28;20045;-34
2022/07/21 12:53:34;;;;;;;9.07;6.70;;;19.90;99.90;;;;;;12525118;28;20053;-40
2022/07/21 12:59:36;;;;;;;8.85;7.95;;;19.60;99.90;;;;;;12530382;28;20191;-33
2022/07/21 13:05:38;;;;;;;9.80;8.07;;;20.10;99.90;;;;;;12540992;28;20040;-33
2022/07/21 13:11:40;;;;;;;9.65;7.47;;;20.50;99.90;;;;;;12532049;28;20081;-38
2022/07/21 13:17:42;;;;;;;10.98;7.43;;;21.00;99.90;;;;;;12530389;28;20045;-39
2022/07/21 13:23:43;;;;;;;9.10;8.15;;;20.90;99.90;;;;;;12558568;28;20083;-34
2022/07/21 13:29:45;;;;;;;11.30;8.35;;;20.60;99.90;;;;;;12548408;28;20048;-37
2022/07/21 13:35:47;;;;;;;9.60;8.55;;;20.50;99.90;;;;;;12548874;28;20063;-38
2022/07/21 13:41:49;;;;;;;8.50;6.03;;;20.40;99.90;;;;;;12557832;28;20142;-40
2022/07/21 13:48:11;;;;;;;7.38;6.03;;;20.60;99.90;;;;;;12533710;28;20053;-40
2022/07/21 13:54:13;;;;;;;4.82;3.50;;;21.20;99.90;;;;;;12549522;28;20403;-34
2022/07/21 14:00:17;;;;;;;5.55;3.60;;;21.50;99.90;;;;;;12549980;28;20084;-38
2022/07/21 14:06:19;;;;;;;5.47;4.10;;;21.30;99.90;;;;;;12560188;28;20052;-34
2022/07/21 14:12:22;;;;;;;6.55;5.10;;;20.70;99.90;;;;;;12546270;28;20041;-34
2022/07/21 14:18:24;;;;;;;12.93;7.40;;;20.40;99.90;;;;;;12538348;28;20183;-34
2022/07/21 14:30:47;;;;;;;17.67;9.38;;;19.50;99.90;;;;;;12536220;28;20074;-38
2022/07/21 14:36:50;;;;;;;13.45;12.00;;;19.50;99.90;;;;;;12531409;28;20557;-34
2022/07/21 14:42:53;;;;;;;12.30;10.75;;;19.70;99.90;;;;;;12536525;28;20046;-34
2022/07/21 14:48:56;;;;;;;12.53;10.70;;;19.70;99.90;;;;;;12540988;28;20105;-39
2022/07/21 14:54:58;;;;;;;13.00;10.65;;;19.80;99.90;;;;;;12539028;28;20519;-34
2022/07/21 15:00:59;;;;;;;13.98;12.45;;;19.80;99.90;;;;;;12547577;28;20600;-39
2022/07/21 15:07:02;;;;;;;14.75;12.45;;;19.80;99.90;;;;;;12543556;28;20049;-40
2022/07/21 15:13:04;;;;;;;15.10;12.00;;;20.00;99.90;;;;;;12531363;28;20183;-34
2022/07/21 15:19:06;;;;;;;19.85;13.25;;;20.10;99.90;;;;;;12537162;28;20110;-34
2022/07/21 15:25:10;;;;;;;15.57;12.38;;;20.40;99.90;;;;;;12540000;28;20147;-34
2022/07/21 15:31:12;;;;;;;17.73;12.43;;;20.50;99.90;;;;;;12527960;28;20052;-34
2022/07/21 15:37:14;;;;;;;16.42;11.75;;;20.40;99.90;;;;;;12530149;28;20048;-38
2022/07/21 15:43:17;;;;;;;13.57;11.18;;;20.40;99.90;;;;;;12531775;28;20162;-38
2022/07/21 15:49:20;;;;;;;14.45;10.38;;;20.50;99.90;;;;;;12533757;28;20068;-38
2022/07/21 15:55:22;;;;;;;12.43;10.27;;;20.50;99.90;;;;;;12499571;28;20120;-34
2022/07/21 16:01:24;;;;;;;12.23;10.30;;;20.50;99.90;;;;;;12515945;28;20150;-39
2022/07/21 16:07:33;;;;;;;7.40;6.50;;;20.60;99.90;;;;;;12515899;28;20077;-39
2022/07/21 16:13:34;;;;;;;7.60;6.07;;;20.90;99.90;;;;;;12518887;28;20064;-39
2022/07/21 16:19:37;;;;;;;7.50;6.10;;;20.90;99.90;;;;;;12517480;28;20063;-39
2022/07/21 16:25:39;;;;;;;9.90;6.10;;;20.90;99.90;;;;;;12527635;28;20449;-34
2022/07/21 16:31:41;;;;;;;8.95;6.10;;;20.70;99.90;;;;;;12525066;28;20045;-34
2022/07/21 16:37:46;;;;;;;6.80;5.95;;;20.50;99.90;;;;;;12535481;28;20505;-34
2022/07/21 16:43:47;;;;;;;7.00;6.10;;;20.40;99.90;;;;;;12529406;28;20459;-34
2022/07/21 16:49:49;;;;;;;8.20;5.65;;;20.40;99.90;;;;;;12524769;28;20054;-34
2022/07/21 16:55:52;;;;;;;8.52;6.07;;;20.40;99.90;;;;;;12513575;28;20071;-39
2022/07/21 17:01:55;;;;;;;9.52;5.70;;;20.50;99.90;;;;;;12525361;28;20128;-38
2022/07/21 17:07:57;;;;;;;4.88;3.92;;;20.60;99.90;;;;;;12527555;28;20511;-36
2022/07/21 17:13:59;;;;;;;4.43;3.00;;;20.60;99.90;;;;;;12515101;28;20131;-35
2022/07/21 17:20:04;;;;;;;3.97;3.22;;;20.60;99.90;;;;;;12520270;28;20048;-40
2022/07/21 17:26:06;;;;;;;5.70;3.92;;;20.90;99.90;;;;;;12527054;28;20139;-34
2022/07/21 17:32:08;;;;;;;9.20;4.80;;;20.70;99.90;;;;;;12531822;28;20037;-34
2022/07/21 17:38:10;;;;;;;7.72;4.85;;;20.50;99.90;;;;;;12534446;28;20127;-34
2022/07/21 17:44:12;;;;;;;7.38;4.53;;;20.40;99.90;;;;;;12530753;28;20339;-34
2022/07/21 17:50:14;;;;;;;7.88;4.80;;;20.30;99.90;;;;;;12527113;28;20106;-38
2022/07/21 17:56:16;;;;;;;6.68;4.20;;;20.10;99.90;;;;;;12526452;28;20099;-34
2022/07/21 18:02:17;;;;;;;8.20;4.50;;;19.90;99.90;;;;;;12541680;28;20091;-34
2022/07/21 18:08:19;;;;;;;6.15;4.90;;;19.80;99.90;;;;;;12525320;28;20421;-34
2022/07/21 18:14:21;;;;;;;7.90;7.07;;;19.50;99.90;;;;;;12537351;28;20204;-34
2022/07/21 18:20:23;;;;;;;9.07;7.43;;;19.30;99.90;;;;;;12527925;28;20046;-39
2022/07/21 18:26:25;;;;;;;9.32;8.35;;;19.30;99.90;;;;;;12541697;28;20046;-34
2022/07/21 18:32:27;;;;;;;13.88;9.10;;;19.10;99.90;;;;;;12529212;28;20506;-34
2022/07/21 18:38:28;;;;;;;12.73;9.60;;;19.10;99.90;;;;;;12516895;28;20134;-39
2022/07/21 18:44:31;;;;;;;12.15;10.27;;;19.10;99.90;;;;;;12523481;28;20052;-34
2022/07/21 18:50:34;;;;;;;10.63;8.60;;;19.10;99.90;;;;;;12517639;28;20135;-38
2022/07/21 18:56:35;;;;;;;8.80;7.90;;;19.10;99.90;;;;;;12521733;28;20057;-40
2022/07/21 19:02:38;;;;;;;9.73;7.57;;;19.10;99.90;;;;;;12525890;28;20532;-34
2022/07/21 19:08:40;;;;;;;7.97;7.15;;;19.10;99.90;;;;;;12527566;28;20061;-39
2022/07/21 19:14:42;;;;;;;6.97;6.28;;;19.00;99.90;;;;;;12528970;28;20053;-39
2022/07/21 19:20:44;;;;;;;11.63;6.10;;;19.10;99.90;;;;;;12517347;28;20128;-38
2022/07/21 19:26:45;;;;;;;10.90;7.00;;;19.10;99.90;;;;;;12529034;28;20056;-34
2022/07/21 19:32:50;;;;;;;9.25;6.60;;;19.00;99.90;;;;;;12507935;28;20478;-34
2022/07/21 19:38:52;;;;;;;9.48;7.47;;;18.80;99.90;;;;;;12515971;28;20763;-38
2022/07/21 19:44:53;;;;;;;8.98;7.68;;;18.70;99.90;;;;;;12518252;28;20136;-40
2022/07/21 19:50:55;;;;;;;10.32;7.45;;;18.70;99.90;;;;;;12524128;28;20102;-39
2022/07/21 19:56:57;;;;;;;10.32;7.78;;;18.50;99.90;;;;;;12522075;28;20038;-34
2022/07/21 20:02:59;;;;;;;11.57;7.80;;;18.50;99.90;;;;;;12524351;28;20060;-38
2022/07/21 20:09:02;;;;;;;9.30;8.18;;;18.50;99.90;;;;;;12528914;28;20056;-34
2022/07/21 20:15:07;;;;;;;11.40;9.13;;;18.40;99.90;;;;;;12517039;28;20203;-38
2022/07/21 20:21:09;;;;;;;11.05;8.27;;;18.50;99.90;;;;;;12515290;28;20434;-39
2022/07/21 20:27:11;;;;;;;13.60;8.95;;;18.50;99.90;;;;;;12541668;28;20097;-34
2022/07/21 20:33:12;;;;;;;12.23;7.90;;;18.50;99.90;;;;;;12531493;28;20436;-39
2022/07/21 20:39:14;;;;;;;10.40;8.38;;;18.50;99.90;;;;;;12524151;28;20094;-34
2022/07/21 20:45:16;;;;;;;11.30;8.07;;;18.40;99.90;;;;;;12523159;28;20044;-40
2022/07/21 20:51:18;;;;;;;11.40;8.05;;;18.50;99.90;;;;;;12522159;28;20049;-34
2022/07/21 20:57:20;;;;;;;13.30;8.00;;;18.50;99.90;;;;;;12518524;28;20053;-39
2022/07/21 21:03:23;;;;;;;14.82;7.97;;;18.60;99.90;;;;;;12527649;28;20405;-39
2022/07/21 21:09:25;;;;;;;13.10;8.55;;;18.50;99.90;;;;;;12525876;28;20052;-40
2022/07/21 21:15:26;;;;;;;10.13;7.28;;;18.40;99.90;;;;;;12514223;28;20045;-38
2022/07/21 21:21:28;;;;;;;10.35;7.28;;;18.50;99.90;;;;;;12516312;28;20041;-39
2022/07/21 21:27:30;;;;;;;8.43;7.30;;;18.50;99.90;;;;;;12521268;28;20139;-39
2022/07/21 21:33:32;;;;;;;11.88;8.00;;;18.50;99.90;;;;;;12513763;28;20037;-34
2022/07/21 21:39:34;;;;;;;10.15;8.68;;;18.50;99.90;;;;;;12517077;28;20452;-38
2022/07/21 21:45:36;;;;;;;11.63;9.27;;;18.50;99.90;;;;;;12525098;28;20045;-35
2022/07/21 21:51:38;;;;;;;13.23;9.93;;;18.50;99.90;;;;;;12535379;28;20183;-34
2022/07/21 21:57:40;;;;;;;10.40;9.23;;;18.50;99.90;;;;;;12524670;28;20060;-34
2022/07/21 22:03:42;;;;;;;14.15;10.82;;;18.50;99.90;;;;;;12528699;28;20094;-39
2022/07/21 22:09:43;;;;;;;17.50;11.50;;;18.50;99.90;;;;;;12532835;28;20117;-33
2022/07/21 22:15:45;;;;;;;15.60;11.57;;;18.40;99.90;;;;;;12534002;28;20097;-38
2022/07/21 22:21:47;;;;;;;15.02;11.35;;;18.40;99.90;;;;;;12539764;28;20048;-34
2022/07/21 22:27:49;;;;;;;16.67;11.68;;;18.40;99.90;;;;;;12531058;28;20135;-37
2022/07/21 22:33:51;;;;;;;16.35;11.95;;;18.40;99.90;;;;;;12524360;28;20049;-38
2022/07/21 22:39:52;;;;;;;15.18;11.95;;;18.40;99.90;;;;;;12530210;28;20319;-38
2022/07/21 22:45:54;;;;;;;13.25;11.45;;;18.50;99.90;;;;;;12520263;28;20038;-38
2022/07/21 22:51:56;;;;;;;14.32;11.68;;;18.50;99.90;;;;;;12526536;28;20079;-37
2022/07/21 22:57:58;;;;;;;13.73;12.27;;;18.40;99.90;;;;;;12533133;28;20106;-34
2022/07/21 23:04:00;;;;;;;16.45;13.43;;;18.40;99.90;;;;;;12528633;28;20532;-38
2022/07/21 23:10:04;;;;;;;16.88;14.18;;;18.40;99.90;;;;;;12522815;28;20463;-33
2022/07/21 23:16:06;;;;;;;18.85;14.52;;;18.50;99.90;;;;;;12518669;28;20095;-34
2022/07/21 23:22:08;;;;;;;17.65;15.10;;;18.40;99.90;;;;;;12526821;28;20079;-34
2022/07/21 23:28:10;;;;;;;16.67;14.38;;;18.40;99.90;;;;;;12530199;28;20077;-34
2022/07/21 23:34:12;;;;;;;19.55;15.98;;;18.40;99.90;;;;;;12522702;28;20154;-38
2022/07/21 23:40:14;;;;;;;17.35;15.40;;;18.40;99.90;;;;;;12519586;28;20045;-33
2022/07/21 23:46:16;;;;;;;22.15;17.02;;;18.50;99.90;;;;;;12535846;28;20050;-34
2022/07/21 23:52:18;;;;;;;18.98;16.98;;;18.40;99.90;;;;;;12523741;28;20060;-38
2022/07/21 23:58:20;;;;;;;19.27;15.93;;;18.20;99.90;;;;;;12530230;28;20059;-34
